sensor_id;sensor_type;location;lat;lon;timestamp;P1;durP1;ratioP1;P2;durP2;ratioP2
69057;SDS011;56128;37.534;-122.308;2024-02-28T00:01:37;4.03;;;0.90;;
69057;SDS011;56128;37.534;-122.308;2024-02-28T00:04:03;2.05;;;0.90;;
69057;SDS011;56128;37.534;-122.308;2024-02-28T00:06:30;2.65;;;0.82;;
69057;SDS011;56128;37.534;-122.308;2024-02-28T00:08:56;4.05;;;1.10;;
69057;SDS011;56128;37.534;-122.308;2024-02-28T00:11:22;3.72;;;1.30;;
69057;SDS011;56128;37.534;-122.308;2024-02-28T00:13:48;3.13;;;1.17;;
69057;SDS011;56128;37.534;-122.308;2024-02-28T00:16:14;4.22;;;1.30;;
69057;SDS011;56128;37.534;-122.308;2024-02-28T00:18:40;1.58;;;0.80;;
69057;SDS011;56128;37.534;-122.308;2024-02-28T00:21:06;3.08;;;1.02;;
69057;SDS011;56128;37.534;-122.308;2024-02-28T00:23:32;3.08;;;1.00;;
69057;SDS011;56128;37.534;-122.308;2024-02-28T00:25:59;4.07;;;1.10;;
69057;SDS011;56128;37.534;-122.308;2024-02-28T00:28:25;1.55;;;0.60;;
69057;SDS011;56128;37.534;-122.308;2024-02-28T00:30:51;5.43;;;0.80;;
69057;SDS011;56128;37.534;-122.308;2024-02-28T00:33:17;3.17;;;1.10;;
69057;SDS011;56128;37.534;-122.308;2024-02-28T00:35:43;4.88;;;1.10;;
69057;SDS011;56128;37.534;-122.308;2024-02-28T00:38:09;2.83;;;0.90;;
69057;SDS011;56128;37.534;-122.308;2024-02-28T00:40:35;3.20;;;0.90;;
69057;SDS011;56128;37.534;-122.308;2024-02-28T00:43:01;3.10;;;1.20;;
69057;SDS011;56128;37.534;-122.308;2024-02-28T00:45:28;3.80;;;1.10;;
69057;SDS011;56128;37.534;-122.308;2024-02-28T00:47:54;3.28;;;0.68;;
69057;SDS011;56128;37.534;-122.308;2024-02-28T00:50:21;2.75;;;1.00;;
69057;SDS011;56128;37.534;-122.308;2024-02-28T00:52:47;3.28;;;0.82;;
69057;SDS011;56128;37.534;-122.308;2024-02-28T00:55:13;4.18;;;0.90;;
69057;SDS011;56128;37.534;-122.308;2024-02-28T00:57:39;5.32;;;1.40;;
69057;SDS011;56128;37.534;-122.308;2024-02-28T01:00:05;2.42;;;1.05;;
69057;SDS011;56128;37.534;-122.308;2024-02-28T01:02:34;4.78;;;1.13;;
69057;SDS011;56128;37.534;-122.308;2024-02-28T01:05:00;3.25;;;1.10;;
69057;SDS011;56128;37.534;-122.308;2024-02-28T01:07:26;2.70;;;0.85;;
69057;SDS011;56128;37.534;-122.308;2024-02-28T01:09:53;4.30;;;1.10;;
69057;SDS011;56128;37.534;-122.308;2024-02-28T01:12:19;4.47;;;1.15;;
69057;SDS011;56128;37.534;-122.308;2024-02-28T01:14:45;3.83;;;0.95;;
69057;SDS011;56128;37.534;-122.308;2024-02-28T01:17:11;4.60;;;1.00;;
69057;SDS011;56128;37.534;-122.308;2024-02-28T01:19:38;6.05;;;1.30;;
69057;SDS011;56128;37.534;-122.308;2024-02-28T01:22:04;2.70;;;0.80;;
69057;SDS011;56128;37.534;-122.308;2024-02-28T01:24:30;3.92;;;1.35;;
69057;SDS011;56128;37.534;-122.308;2024-02-28T01:26:58;4.75;;;1.20;;
69057;SDS011;56128;37.534;-122.308;2024-02-28T01:29:25;2.80;;;1.00;;
69057;SDS011;56128;37.534;-122.308;2024-02-28T01:31:51;5.47;;;1.20;;
69057;SDS011;56128;37.534;-122.308;2024-02-28T01:34:17;5.25;;;1.50;;
69057;SDS011;56128;37.534;-122.308;2024-02-28T01:36:43;4.18;;;1.10;;
69057;SDS011;56128;37.534;-122.308;2024-02-28T01:39:10;3.95;;;1.08;;
69057;SDS011;56128;37.534;-122.308;2024-02-28T01:41:36;2.63;;;1.20;;
69057;SDS011;56128;37.534;-122.308;2024-02-28T01:44:02;4.22;;;0.90;;
69057;SDS011;56128;37.534;-122.308;2024-02-28T01:46:29;2.25;;;1.00;;
69057;SDS011;56128;37.534;-122.308;2024-02-28T01:48:56;2.95;;;1.10;;
69057;SDS011;56128;37.534;-122.308;2024-02-28T01:51:24;5.72;;;1.23;;
69057;SDS011;56128;37.534;-122.308;2024-02-28T01:53:55;4.90;;;1.20;;
69057;SDS011;56128;37.534;-122.308;2024-02-28T01:56:22;3.60;;;1.00;;
69057;SDS011;56128;37.534;-122.308;2024-02-28T01:58:50;4.38;;;1.10;;
69057;SDS011;56128;37.534;-122.308;2024-02-28T02:01:18;5.90;;;1.15;;
69057;SDS011;56128;37.534;-122.308;2024-02-28T02:03:44;2.88;;;1.00;;
69057;SDS011;56128;37.534;-122.308;2024-02-28T02:06:10;4.63;;;1.13;;
69057;SDS011;56128;37.534;-122.308;2024-02-28T02:08:37;4.40;;;1.40;;
69057;SDS011;56128;37.534;-122.308;2024-02-28T02:11:04;4.20;;;1.10;;
69057;SDS011;56128;37.534;-122.308;2024-02-28T02:13:31;4.20;;;1.33;;
69057;SDS011;56128;37.534;-122.308;2024-02-28T02:15:58;4.80;;;1.17;;
69057;SDS011;56128;37.534;-122.308;2024-02-28T02:18:24;5.65;;;1.15;;
69057;SDS011;56128;37.534;-122.308;2024-02-28T02:20:50;4.78;;;1.00;;
69057;SDS011;56128;37.534;-122.308;2024-02-28T02:23:22;6.50;;;1.63;;
69057;SDS011;56128;37.534;-122.308;2024-02-28T02:25:48;6.90;;;1.40;;
69057;SDS011;56128;37.534;-122.308;2024-02-28T02:28:15;5.18;;;1.33;;
69057;SDS011;56128;37.534;-122.308;2024-02-28T02:30:41;7.03;;;1.42;;
69057;SDS011;56128;37.534;-122.308;2024-02-28T02:33:07;5.97;;;1.45;;
69057;SDS011;56128;37.534;-122.308;2024-02-28T02:35:35;6.65;;;1.35;;
69057;SDS011;56128;37.534;-122.308;2024-02-28T02:38:01;7.32;;;1.17;;
69057;SDS011;56128;37.534;-122.308;2024-02-28T02:40:27;10.43;;;1.90;;
69057;SDS011;56128;37.534;-122.308;2024-02-28T02:42:53;6.65;;;1.63;;
69057;SDS011;56128;37.534;-122.308;2024-02-28T02:45:20;8.90;;;1.88;;
69057;SDS011;56128;37.534;-122.308;2024-02-28T02:47:46;9.88;;;1.85;;
69057;SDS011;56128;37.534;-122.308;2024-02-28T02:50:12;10.43;;;1.73;;
69057;SDS011;56128;37.534;-122.308;2024-02-28T02:52:38;6.35;;;1.83;;
69057;SDS011;56128;37.534;-122.308;2024-02-28T02:55:04;13.65;;;2.00;;
69057;SDS011;56128;37.534;-122.308;2024-02-28T02:57:31;8.52;;;1.83;;
69057;SDS011;56128;37.534;-122.308;2024-02-28T02:59:58;13.07;;;2.05;;
69057;SDS011;56128;37.534;-122.308;2024-02-28T03:02:24;8.80;;;1.77;;
69057;SDS011;56128;37.534;-122.308;2024-02-28T03:04:51;11.40;;;1.77;;
69057;SDS011;56128;37.534;-122.308;2024-02-28T03:07:17;12.80;;;2.17;;
69057;SDS011;56128;37.534;-122.308;2024-02-28T03:09:43;8.32;;;1.73;;
69057;SDS011;56128;37.534;-122.308;2024-02-28T03:12:09;9.68;;;2.00;;
69057;SDS011;56128;37.534;-122.308;2024-02-28T03:14:35;8.15;;;1.83;;
69057;SDS011;56128;37.534;-122.308;2024-02-28T03:17:01;11.02;;;2.45;;
69057;SDS011;56128;37.534;-122.308;2024-02-28T03:19:27;12.23;;;2.58;;
69057;SDS011;56128;37.534;-122.308;2024-02-28T03:21:54;12.55;;;2.33;;
69057;SDS011;56128;37.534;-122.308;2024-02-28T03:24:20;10.10;;;2.50;;
69057;SDS011;56128;37.534;-122.308;2024-02-28T03:26:46;9.90;;;2.17;;
69057;SDS011;56128;37.534;-122.308;2024-02-28T03:29:13;19.02;;;2.40;;
69057;SDS011;56128;37.534;-122.308;2024-02-28T03:31:39;10.90;;;1.85;;
69057;SDS011;56128;37.534;-122.308;2024-02-28T03:34:05;10.88;;;2.25;;
69057;SDS011;56128;37.534;-122.308;2024-02-28T03:36:31;10.48;;;2.25;;
69057;SDS011;56128;37.534;-122.308;2024-02-28T03:38:58;12.52;;;2.45;;
69057;SDS011;56128;37.534;-122.308;2024-02-28T03:41:24;9.27;;;2.00;;
69057;SDS011;56128;37.534;-122.308;2024-02-28T03:43:50;13.10;;;2.53;;
69057;SDS011;56128;37.534;-122.308;2024-02-28T03:46:16;15.07;;;3.08;;
69057;SDS011;56128;37.534;-122.308;2024-02-28T03:48:43;12.02;;;2.33;;
69057;SDS011;56128;37.534;-122.308;2024-02-28T03:51:09;12.13;;;2.65;;
69057;SDS011;56128;37.534;-122.308;2024-02-28T03:53:35;10.75;;;2.60;;
69057;SDS011;56128;37.534;-122.308;2024-02-28T03:56:01;12.52;;;2.70;;
69057;SDS011;56128;37.534;-122.308;2024-02-28T03:58:28;14.02;;;2.83;;
69057;SDS011;56128;37.534;-122.308;2024-02-28T04:00:54;10.45;;;2.40;;
69057;SDS011;56128;37.534;-122.308;2024-02-28T04:03:20;13.90;;;2.63;;
69057;SDS011;56128;37.534;-122.308;2024-02-28T04:05:46;10.32;;;2.20;;
69057;SDS011;56128;37.534;-122.308;2024-02-28T04:08:13;16.48;;;2.72;;
69057;SDS011;56128;37.534;-122.308;2024-02-28T04:10:39;12.20;;;2.00;;
69057;SDS011;56128;37.534;-122.308;2024-02-28T04:13:05;12.88;;;2.70;;
69057;SDS011;56128;37.534;-122.308;2024-02-28T04:15:32;17.52;;;4.07;;
69057;SDS011;56128;37.534;-122.308;2024-02-28T04:17:58;16.15;;;2.75;;
69057;SDS011;56128;37.534;-122.308;2024-02-28T04:20:24;12.18;;;2.25;;
69057;SDS011;56128;37.534;-122.308;2024-02-28T04:22:51;11.65;;;3.03;;
69057;SDS011;56128;37.534;-122.308;2024-02-28T04:25:17;15.70;;;2.30;;
69057;SDS011;56128;37.534;-122.308;2024-02-28T04:27:44;10.88;;;2.60;;
69057;SDS011;56128;37.534;-122.308;2024-02-28T04:30:11;9.35;;;2.03;;
69057;SDS011;56128;37.534;-122.308;2024-02-28T04:32:38;16.15;;;2.33;;
69057;SDS011;56128;37.534;-122.308;2024-02-28T04:35:04;16.42;;;2.42;;
69057;SDS011;56128;37.534;-122.308;2024-02-28T04:37:31;10.35;;;2.15;;
69057;SDS011;56128;37.534;-122.308;2024-02-28T04:40:00;14.65;;;2.80;;
69057;SDS011;56128;37.534;-122.308;2024-02-28T04:42:26;12.20;;;2.60;;
69057;SDS011;56128;37.534;-122.308;2024-02-28T04:44:52;15.95;;;2.33;;
69057;SDS011;56128;37.534;-122.308;2024-02-28T04:47:18;16.58;;;2.58;;
69057;SDS011;56128;37.534;-122.308;2024-02-28T04:49:45;13.00;;;2.30;;
69057;SDS011;56128;37.534;-122.308;2024-02-28T04:52:11;12.43;;;2.83;;
69057;SDS011;56128;37.534;-122.308;2024-02-28T04:54:39;15.55;;;2.97;;
69057;SDS011;56128;37.534;-122.308;2024-02-28T04:57:06;10.63;;;1.92;;
69057;SDS011;56128;37.534;-122.308;2024-02-28T04:59:32;17.42;;;2.50;;
69057;SDS011;56128;37.534;-122.308;2024-02-28T05:01:58;15.07;;;2.53;;
69057;SDS011;56128;37.534;-122.308;2024-02-28T05:04:24;13.05;;;2.35;;
69057;SDS011;56128;37.534;-122.308;2024-02-28T05:06:51;15.18;;;2.72;;
69057;SDS011;56128;37.534;-122.308;2024-02-28T05:09:17;13.18;;;2.63;;
69057;SDS011;56128;37.534;-122.308;2024-02-28T05:11:43;11.32;;;2.70;;
69057;SDS011;56128;37.534;-122.308;2024-02-28T05:14:10;19.85;;;2.53;;
69057;SDS011;56128;37.534;-122.308;2024-02-28T05:16:36;18.13;;;2.35;;
69057;SDS011;56128;37.534;-122.308;2024-02-28T05:19:03;16.55;;;2.72;;
69057;SDS011;56128;37.534;-122.308;2024-02-28T05:21:29;12.30;;;2.33;;
69057;SDS011;56128;37.534;-122.308;2024-02-28T05:23:55;13.52;;;2.45;;
69057;SDS011;56128;37.534;-122.308;2024-02-28T05:26:22;17.08;;;3.47;;
69057;SDS011;56128;37.534;-122.308;2024-02-28T05:28:48;17.02;;;2.92;;
69057;SDS011;56128;37.534;-122.308;2024-02-28T05:31:20;13.77;;;2.30;;
69057;SDS011;56128;37.534;-122.308;2024-02-28T05:33:50;15.23;;;2.30;;
69057;SDS011;56128;37.534;-122.308;2024-02-28T05:36:17;12.77;;;2.40;;
69057;SDS011;56128;37.534;-122.308;2024-02-28T05:38:47;13.73;;;2.13;;
69057;SDS011;56128;37.534;-122.308;2024-02-28T05:41:13;13.80;;;1.92;;
69057;SDS011;56128;37.534;-122.308;2024-02-28T05:43:41;15.25;;;2.65;;
69057;SDS011;56128;37.534;-122.308;2024-02-28T05:46:07;12.82;;;2.30;;
69057;SDS011;56128;37.534;-122.308;2024-02-28T05:48:33;15.48;;;2.35;;
69057;SDS011;56128;37.534;-122.308;2024-02-28T05:51:02;13.02;;;2.05;;
69057;SDS011;56128;37.534;-122.308;2024-02-28T05:53:29;9.18;;;1.92;;
69057;SDS011;56128;37.534;-122.308;2024-02-28T05:56:04;11.75;;;2.25;;
69057;SDS011;56128;37.534;-122.308;2024-02-28T05:58:38;8.18;;;2.35;;
69057;SDS011;56128;37.534;-122.308;2024-02-28T06:01:12;11.50;;;2.15;;
69057;SDS011;56128;37.534;-122.308;2024-02-28T06:06:08;10.35;;;1.98;;
69057;SDS011;56128;37.534;-122.308;2024-02-28T06:08:37;11.45;;;1.85;;
69057;SDS011;56128;37.534;-122.308;2024-02-28T06:11:04;11.00;;;1.65;;
69057;SDS011;56128;37.534;-122.308;2024-02-28T06:13:30;10.57;;;1.90;;
69057;SDS011;56128;37.534;-122.308;2024-02-28T06:15:56;11.55;;;2.15;;
69057;SDS011;56128;37.534;-122.308;2024-02-28T06:18:23;10.70;;;1.80;;
69057;SDS011;56128;37.534;-122.308;2024-02-28T06:20:54;7.78;;;2.15;;
69057;SDS011;56128;37.534;-122.308;2024-02-28T06:23:21;9.63;;;2.00;;
69057;SDS011;56128;37.534;-122.308;2024-02-28T06:25:48;9.00;;;1.52;;
69057;SDS011;56128;37.534;-122.308;2024-02-28T06:28:14;10.75;;;2.25;;
69057;SDS011;56128;37.534;-122.308;2024-02-28T06:30:42;6.82;;;1.60;;
69057;SDS011;56128;37.534;-122.308;2024-02-28T06:33:11;9.20;;;1.92;;
69057;SDS011;56128;37.534;-122.308;2024-02-28T06:35:38;8.48;;;1.80;;
69057;SDS011;56128;37.534;-122.308;2024-02-28T06:38:05;8.95;;;1.70;;
69057;SDS011;56128;37.534;-122.308;2024-02-28T06:40:32;11.98;;;1.80;;
69057;SDS011;56128;37.534;-122.308;2024-02-28T06:42:59;5.22;;;1.70;;
69057;SDS011;56128;37.534;-122.308;2024-02-28T06:45:26;6.10;;;1.60;;
69057;SDS011;56128;37.534;-122.308;2024-02-28T06:47:52;9.57;;;1.75;;
69057;SDS011;56128;37.534;-122.308;2024-02-28T06:50:18;10.02;;;1.80;;
69057;SDS011;56128;37.534;-122.308;2024-02-28T06:52:44;4.85;;;1.67;;
69057;SDS011;56128;37.534;-122.308;2024-02-28T06:55:11;7.80;;;1.70;;
69057;SDS011;56128;37.534;-122.308;2024-02-28T06:57:39;7.35;;;1.67;;
69057;SDS011;56128;37.534;-122.308;2024-02-28T07:00:07;8.25;;;1.67;;
69057;SDS011;56128;37.534;-122.308;2024-02-28T07:02:35;6.68;;;1.20;;
69057;SDS011;56128;37.534;-122.308;2024-02-28T07:05:01;8.40;;;1.75;;
69057;SDS011;56128;37.534;-122.308;2024-02-28T07:07:32;7.53;;;1.70;;
69057;SDS011;56128;37.534;-122.308;2024-02-28T07:09:58;8.48;;;1.50;;
69057;SDS011;56128;37.534;-122.308;2024-02-28T07:12:25;6.55;;;1.90;;
69057;SDS011;56128;37.534;-122.308;2024-02-28T07:14:51;6.45;;;1.60;;
69057;SDS011;56128;37.534;-122.308;2024-02-28T07:17:18;7.22;;;1.27;;
69057;SDS011;56128;37.534;-122.308;2024-02-28T07:19:44;8.32;;;1.70;;
69057;SDS011;56128;37.534;-122.308;2024-02-28T07:22:10;10.35;;;2.30;;
69057;SDS011;56128;37.534;-122.308;2024-02-28T07:24:36;7.38;;;1.58;;
69057;SDS011;56128;37.534;-122.308;2024-02-28T07:27:03;6.97;;;1.60;;
69057;SDS011;56128;37.534;-122.308;2024-02-28T07:29:29;7.30;;;1.73;;
69057;SDS011;56128;37.534;-122.308;2024-02-28T07:31:56;6.05;;;1.30;;
69057;SDS011;56128;37.534;-122.308;2024-02-28T07:34:22;7.38;;;2.13;;
69057;SDS011;56128;37.534;-122.308;2024-02-28T07:36:48;6.93;;;1.40;;
69057;SDS011;56128;37.534;-122.308;2024-02-28T07:39:15;5.85;;;1.40;;
69057;SDS011;56128;37.534;-122.308;2024-02-28T07:41:41;6.05;;;1.50;;
69057;SDS011;56128;37.534;-122.308;2024-02-28T07:44:07;5.85;;;1.77;;
69057;SDS011;56128;37.534;-122.308;2024-02-28T07:46:34;6.05;;;1.83;;
69057;SDS011;56128;37.534;-122.308;2024-02-28T07:49:00;5.07;;;1.30;;
69057;SDS011;56128;37.534;-122.308;2024-02-28T07:51:27;5.15;;;1.33;;
69057;SDS011;56128;37.534;-122.308;2024-02-28T07:53:54;7.13;;;1.73;;
69057;SDS011;56128;37.534;-122.308;2024-02-28T07:56:20;7.28;;;1.40;;
69057;SDS011;56128;37.534;-122.308;2024-02-28T07:58:47;3.78;;;1.42;;
69057;SDS011;56128;37.534;-122.308;2024-02-28T08:01:13;6.65;;;1.40;;
69057;SDS011;56128;37.534;-122.308;2024-02-28T08:03:42;6.68;;;1.45;;
69057;SDS011;56128;37.534;-122.308;2024-02-28T08:06:08;7.93;;;1.60;;
69057;SDS011;56128;37.534;-122.308;2024-02-28T08:08:35;8.98;;;1.98;;
69057;SDS011;56128;37.534;-122.308;2024-02-28T08:11:02;3.35;;;1.27;;
69057;SDS011;56128;37.534;-122.308;2024-02-28T08:13:28;6.85;;;2.00;;
69057;SDS011;56128;37.534;-122.308;2024-02-28T08:15:55;7.78;;;1.15;;
69057;SDS011;56128;37.534;-122.308;2024-02-28T08:18:21;7.63;;;1.60;;
69057;SDS011;56128;37.534;-122.308;2024-02-28T08:20:47;10.00;;;1.52;;
69057;SDS011;56128;37.534;-122.308;2024-02-28T08:23:15;5.65;;;1.40;;
69057;SDS011;56128;37.534;-122.308;2024-02-28T08:25:41;6.20;;;1.60;;
69057;SDS011;56128;37.534;-122.308;2024-02-28T08:28:07;7.55;;;1.30;;
69057;SDS011;56128;37.534;-122.308;2024-02-28T08:30:33;8.73;;;1.40;;
69057;SDS011;56128;37.534;-122.308;2024-02-28T08:32:59;5.95;;;1.65;;
69057;SDS011;56128;37.534;-122.308;2024-02-28T08:35:25;11.98;;;1.70;;
69057;SDS011;56128;37.534;-122.308;2024-02-28T08:37:52;4.63;;;1.35;;
69057;SDS011;56128;37.534;-122.308;2024-02-28T08:40:18;6.93;;;1.45;;
69057;SDS011;56128;37.534;-122.308;2024-02-28T08:42:44;7.57;;;1.50;;
69057;SDS011;56128;37.534;-122.308;2024-02-28T08:45:11;5.40;;;1.48;;
69057;SDS011;56128;37.534;-122.308;2024-02-28T08:47:37;5.78;;;1.67;;
69057;SDS011;56128;37.534;-122.308;2024-02-28T08:50:04;6.63;;;1.65;;
69057;SDS011;56128;37.534;-122.308;2024-02-28T08:52:30;6.13;;;1.40;;
69057;SDS011;56128;37.534;-122.308;2024-02-28T08:54:56;8.90;;;1.45;;
69057;SDS011;56128;37.534;-122.308;2024-02-28T08:57:22;7.60;;;1.27;;
69057;SDS011;56128;37.534;-122.308;2024-02-28T08:59:49;5.55;;;1.30;;
69057;SDS011;56128;37.534;-122.308;2024-02-28T09:02:16;6.00;;;1.60;;
69057;SDS011;56128;37.534;-122.308;2024-02-28T09:04:42;7.15;;;1.92;;
69057;SDS011;56128;37.534;-122.308;2024-02-28T09:07:08;4.50;;;1.15;;
69057;SDS011;56128;37.534;-122.308;2024-02-28T09:09:34;7.85;;;1.60;;
69057;SDS011;56128;37.534;-122.308;2024-02-28T09:12:03;6.50;;;1.40;;
69057;SDS011;56128;37.534;-122.308;2024-02-28T09:14:49;7.10;;;1.80;;
69057;SDS011;56128;37.534;-122.308;2024-02-28T09:17:21;4.88;;;1.50;;
69057;SDS011;56128;37.534;-122.308;2024-02-28T09:19:47;6.97;;;1.60;;
69057;SDS011;56128;37.534;-122.308;2024-02-28T09:22:13;7.72;;;1.50;;
69057;SDS011;56128;37.534;-122.308;2024-02-28T09:24:42;7.53;;;1.60;;
69057;SDS011;56128;37.534;-122.308;2024-02-28T09:27:08;8.43;;;1.38;;
69057;SDS011;56128;37.534;-122.308;2024-02-28T09:29:34;4.43;;;1.10;;
69057;SDS011;56128;37.534;-122.308;2024-02-28T09:32:00;7.78;;;1.67;;
69057;SDS011;56128;37.534;-122.308;2024-02-28T09:34:26;9.98;;;1.50;;
69057;SDS011;56128;37.534;-122.308;2024-02-28T09:36:52;5.07;;;1.42;;
69057;SDS011;56128;37.534;-122.308;2024-02-28T09:39:18;5.50;;;1.40;;
69057;SDS011;56128;37.534;-122.308;2024-02-28T09:41:46;8.57;;;1.50;;
69057;SDS011;56128;37.534;-122.308;2024-02-28T09:44:16;9.93;;;1.63;;
69057;SDS011;56128;37.534;-122.308;2024-02-28T09:46:43;5.70;;;1.60;;
69057;SDS011;56128;37.534;-122.308;2024-02-28T09:49:10;8.15;;;1.80;;
69057;SDS011;56128;37.534;-122.308;2024-02-28T09:51:36;10.30;;;1.48;;
69057;SDS011;56128;37.534;-122.308;2024-02-28T09:54:05;6.13;;;1.30;;
69057;SDS011;56128;37.534;-122.308;2024-02-28T09:56:31;8.15;;;1.70;;
69057;SDS011;56128;37.534;-122.308;2024-02-28T09:58:58;6.97;;;1.40;;
69057;SDS011;56128;37.534;-122.308;2024-02-28T10:01:28;5.43;;;1.40;;
69057;SDS011;56128;37.534;-122.308;2024-02-28T10:03:55;8.90;;;1.27;;
69057;SDS011;56128;37.534;-122.308;2024-02-28T10:06:24;6.22;;;1.60;;
69057;SDS011;56128;37.534;-122.308;2024-02-28T10:08:50;4.97;;;1.40;;
69057;SDS011;56128;37.534;-122.308;2024-02-28T10:11:18;4.28;;;1.70;;
69057;SDS011;56128;37.534;-122.308;2024-02-28T10:13:46;5.93;;;1.33;;
69057;SDS011;56128;37.534;-122.308;2024-02-28T10:16:13;9.77;;;1.48;;
69057;SDS011;56128;37.534;-122.308;2024-02-28T10:18:42;7.45;;;1.60;;
69057;SDS011;56128;37.534;-122.308;2024-02-28T10:21:09;5.00;;;1.30;;
69057;SDS011;56128;37.534;-122.308;2024-02-28T10:23:41;6.07;;;1.40;;
69057;SDS011;56128;37.534;-122.308;2024-02-28T10:26:11;6.97;;;1.27;;
69057;SDS011;56128;37.534;-122.308;2024-02-28T10:28:40;8.65;;;1.40;;
69057;SDS011;56128;37.534;-122.308;2024-02-28T10:31:09;4.60;;;1.25;;
69057;SDS011;56128;37.534;-122.308;2024-02-28T10:33:35;3.95;;;1.30;;
69057;SDS011;56128;37.534;-122.308;2024-02-28T10:36:05;4.65;;;1.27;;
69057;SDS011;56128;37.534;-122.308;2024-02-28T10:38:32;8.90;;;1.40;;
69057;SDS011;56128;37.534;-122.308;2024-02-28T10:41:02;4.47;;;1.35;;
69057;SDS011;56128;37.534;-122.308;2024-02-28T10:43:29;5.50;;;1.40;;
69057;SDS011;56128;37.534;-122.308;2024-02-28T10:45:56;5.03;;;1.30;;
69057;SDS011;56128;37.534;-122.308;2024-02-28T10:48:23;6.28;;;1.20;;
69057;SDS011;56128;37.534;-122.308;2024-02-28T10:50:50;7.72;;;1.60;;
69057;SDS011;56128;37.534;-122.308;2024-02-28T10:53:21;8.32;;;1.40;;
69057;SDS011;56128;37.534;-122.308;2024-02-28T10:55:55;4.10;;;1.20;;
69057;SDS011;56128;37.534;-122.308;2024-02-28T10:58:30;6.25;;;1.40;;
69057;SDS011;56128;37.534;-122.308;2024-02-28T11:01:05;9.15;;;1.40;;
69057;SDS011;56128;37.534;-122.308;2024-02-28T11:03:31;5.88;;;1.42;;
69057;SDS011;56128;37.534;-122.308;2024-02-28T11:05:58;8.60;;;1.40;;
69057;SDS011;56128;37.534;-122.308;2024-02-28T11:08:24;3.55;;;1.40;;
69057;SDS011;56128;37.534;-122.308;2024-02-28T11:10:56;12.40;;;1.52;;
69057;SDS011;56128;37.534;-122.308;2024-02-28T11:13:24;4.03;;;1.13;;
69057;SDS011;56128;37.534;-122.308;2024-02-28T11:15:51;4.55;;;1.10;;
69057;SDS011;56128;37.534;-122.308;2024-02-28T11:18:18;7.15;;;1.52;;
69057;SDS011;56128;37.534;-122.308;2024-02-28T11:20:44;5.18;;;1.40;;
69057;SDS011;56128;37.534;-122.308;2024-02-28T11:23:16;5.82;;;1.40;;
69057;SDS011;56128;37.534;-122.308;2024-02-28T11:25:43;9.32;;;1.45;;
69057;SDS011;56128;37.534;-122.308;2024-02-28T11:28:09;6.50;;;1.20;;
69057;SDS011;56128;37.534;-122.308;2024-02-28T11:30:35;6.30;;;1.20;;
69057;SDS011;56128;37.534;-122.308;2024-02-28T11:33:01;12.38;;;1.50;;
69057;SDS011;56128;37.534;-122.308;2024-02-28T11:35:28;8.65;;;1.50;;
69057;SDS011;56128;37.534;-122.308;2024-02-28T11:37:54;4.60;;;1.42;;
69057;SDS011;56128;37.534;-122.308;2024-02-28T11:40:24;6.00;;;1.50;;
69057;SDS011;56128;37.534;-122.308;2024-02-28T11:42:59;7.53;;;1.67;;
69057;SDS011;56128;37.534;-122.308;2024-02-28T11:45:28;5.95;;;1.45;;
69057;SDS011;56128;37.534;-122.308;2024-02-28T11:47:55;4.55;;;1.50;;
69057;SDS011;56128;37.534;-122.308;2024-02-28T11:50:21;6.25;;;1.77;;
69057;SDS011;56128;37.534;-122.308;2024-02-28T11:52:48;3.97;;;1.10;;
69057;SDS011;56128;37.534;-122.308;2024-02-28T11:55:14;8.55;;;1.30;;
69057;SDS011;56128;37.534;-122.308;2024-02-28T11:57:40;7.53;;;2.03;;
69057;SDS011;56128;37.534;-122.308;2024-02-28T12:00:07;5.15;;;1.63;;
69057;SDS011;56128;37.534;-122.308;2024-02-28T12:02:38;7.35;;;1.40;;
69057;SDS011;56128;37.534;-122.308;2024-02-28T12:05:04;7.43;;;1.40;;
69057;SDS011;56128;37.534;-122.308;2024-02-28T12:07:31;3.75;;;1.23;;
69057;SDS011;56128;37.534;-122.308;2024-02-28T12:09:58;4.57;;;1.38;;
69057;SDS011;56128;37.534;-122.308;2024-02-28T12:12:24;4.93;;;1.20;;
69057;SDS011;56128;37.534;-122.308;2024-02-28T12:14:57;3.38;;;1.23;;
69057;SDS011;56128;37.534;-122.308;2024-02-28T12:17:26;6.40;;;1.23;;
69057;SDS011;56128;37.534;-122.308;2024-02-28T12:19:52;6.30;;;1.35;;
69057;SDS011;56128;37.534;-122.308;2024-02-28T12:22:18;6.75;;;1.25;;
69057;SDS011;56128;37.534;-122.308;2024-02-28T12:24:45;9.48;;;1.50;;
69057;SDS011;56128;37.534;-122.308;2024-02-28T12:27:11;4.50;;;1.52;;
69057;SDS011;56128;37.534;-122.308;2024-02-28T12:29:38;7.50;;;1.52;;
69057;SDS011;56128;37.534;-122.308;2024-02-28T12:32:04;7.97;;;1.20;;
69057;SDS011;56128;37.534;-122.308;2024-02-28T12:34:30;4.55;;;1.20;;
69057;SDS011;56128;37.534;-122.308;2024-02-28T12:36:56;6.13;;;1.20;;
69057;SDS011;56128;37.534;-122.308;2024-02-28T12:39:22;8.20;;;1.48;;
69057;SDS011;56128;37.534;-122.308;2024-02-28T12:41:49;7.57;;;1.38;;
69057;SDS011;56128;37.534;-122.308;2024-02-28T12:44:15;5.80;;;1.30;;
69057;SDS011;56128;37.534;-122.308;2024-02-28T12:46:41;5.32;;;1.40;;
69057;SDS011;56128;37.534;-122.308;2024-02-28T12:49:07;8.70;;;1.30;;
69057;SDS011;56128;37.534;-122.308;2024-02-28T12:54:07;10.57;;;1.40;;
69057;SDS011;56128;37.534;-122.308;2024-02-28T12:56:35;3.65;;;1.40;;
69057;SDS011;56128;37.534;-122.308;2024-02-28T12:59:05;6.05;;;1.55;;
69057;SDS011;56128;37.534;-122.308;2024-02-28T13:01:34;7.10;;;1.58;;
69057;SDS011;56128;37.534;-122.308;2024-02-28T13:04:01;4.38;;;1.50;;
69057;SDS011;56128;37.534;-122.308;2024-02-28T13:06:27;6.82;;;1.80;;
69057;SDS011;56128;37.534;-122.308;2024-02-28T13:08:53;3.92;;;1.40;;
69057;SDS011;56128;37.534;-122.308;2024-02-28T13:11:20;7.50;;;1.30;;
69057;SDS011;56128;37.534;-122.308;2024-02-28T13:13:50;6.82;;;1.40;;
69057;SDS011;56128;37.534;-122.308;2024-02-28T13:16:17;5.68;;;1.45;;
69057;SDS011;56128;37.534;-122.308;2024-02-28T13:18:45;4.13;;;1.30;;
69057;SDS011;56128;37.534;-122.308;2024-02-28T13:21:11;3.75;;;1.50;;
69057;SDS011;56128;37.534;-122.308;2024-02-28T13:23:37;6.57;;;1.50;;
69057;SDS011;56128;37.534;-122.308;2024-02-28T13:26:04;6.32;;;1.40;;
69057;SDS011;56128;37.534;-122.308;2024-02-28T13:28:31;6.90;;;1.42;;
69057;SDS011;56128;37.534;-122.308;2024-02-28T13:30:57;4.97;;;1.38;;
69057;SDS011;56128;37.534;-122.308;2024-02-28T13:33:24;4.18;;;1.42;;
69057;SDS011;56128;37.534;-122.308;2024-02-28T13:35:51;7.20;;;1.40;;
69057;SDS011;56128;37.534;-122.308;2024-02-28T13:38:18;5.97;;;1.25;;
69057;SDS011;56128;37.534;-122.308;2024-02-28T13:40:48;5.82;;;1.30;;
69057;SDS011;56128;37.534;-122.308;2024-02-28T13:43:18;6.20;;;1.23;;
69057;SDS011;56128;37.534;-122.308;2024-02-28T13:45:48;3.72;;;1.30;;
69057;SDS011;56128;37.534;-122.308;2024-02-28T13:48:17;4.53;;;1.33;;
69057;SDS011;56128;37.534;-122.308;2024-02-28T13:50:47;5.05;;;1.35;;
69057;SDS011;56128;37.534;-122.308;2024-02-28T13:53:14;5.82;;;1.30;;
69057;SDS011;56128;37.534;-122.308;2024-02-28T13:55:41;6.13;;;1.50;;
69057;SDS011;56128;37.534;-122.308;2024-02-28T13:58:13;3.78;;;1.45;;
69057;SDS011;56128;37.534;-122.308;2024-02-28T14:00:43;4.20;;;1.20;;
69057;SDS011;56128;37.534;-122.308;2024-02-28T14:03:13;7.53;;;1.30;;
69057;SDS011;56128;37.534;-122.308;2024-02-28T14:05:40;7.38;;;1.50;;
69057;SDS011;56128;37.534;-122.308;2024-02-28T14:08:06;3.40;;;1.48;;
69057;SDS011;56128;37.534;-122.308;2024-02-28T14:10:34;7.22;;;1.35;;